Time;durP1;ratioP1;P1;durP2;ratioP2;P2;SDS_P1;SDS_P2;PMS_P1;PMS_P2;Temp;Humidity;BMP_temperature;BMP_pressure;BME280_temperature;BME280_humidity;BME280_pressure;Samples;Min_cycle;Max_cycle;Signal;HPM_P1;HPM_P2
2022/02/24 00:01:58;;;;;;;7.50;2.47;;;7.30;99.90;;;;;;5014157;28;20049;-61
2022/02/24 00:04:24;;;;;;;6.47;2.22;;;7.40;99.90;;;;;;4993801;28;20034;-61
2022/02/24 00:06:50;;;;;;;6.05;2.10;;;7.40;99.90;;;;;;4978976;28;20519;-60
2022/02/24 00:09:15;;;;;;;4.82;1.95;;;7.40;99.90;;;;;;5001805;28;20026;-61
2022/02/24 00:11:41;;;;;;;6.57;2.28;;;7.40;99.90;;;;;;5005927;28;20034;-61
2022/02/24 00:14:06;;;;;;;6.78;2.20;;;7.30;99.90;;;;;;4997196;28;20030;-59
2022/02/24 00:16:32;;;;;;;5.22;1.90;;;7.30;99.90;;;;;;5012357;28;20514;-61
2022/02/24 00:18:58;;;;;;;7.57;2.40;;;7.30;99.90;;;;;;5007880;28;20124;-59
2022/02/24 00:21:23;;;;;;;10.10;2.65;;;7.30;99.90;;;;;;5009250;28;20034;-57
2022/02/24 00:23:49;;;;;;;7.35;1.90;;;7.30;99.90;;;;;;5002921;28;20165;-60
2022/02/24 00:26:15;;;;;;;7.38;2.53;;;7.20;99.90;;;;;;5005584;28;20435;-60
2022/02/24 00:28:40;;;;;;;10.13;2.67;;;7.10;99.90;;;;;;5004090;28;20056;-60
2022/02/24 00:31:09;;;;;;;8.55;1.88;;;7.00;99.90;;;;;;5006023;28;20065;-61
2022/02/24 00:33:40;;;;;;;11.57;2.33;;;7.00;99.90;;;;;;5009969;28;20045;-59
2022/02/24 00:36:07;;;;;;;7.03;2.20;;;6.90;99.90;;;;;;5011599;28;20025;-59
2022/02/24 00:38:33;;;;;;;8.95;2.22;;;6.90;99.90;;;;;;5001858;28;20118;-58
2022/02/24 00:40:59;;;;;;;7.60;2.20;;;6.90;99.90;;;;;;5006052;28;20038;-56
2022/02/24 00:43:25;;;;;;;7.15;1.83;;;6.90;99.90;;;;;;5004945;28;20450;-61
2022/02/24 00:45:50;;;;;;;5.97;2.33;;;6.90;99.90;;;;;;5005510;28;20033;-60
2022/02/24 00:48:16;;;;;;;8.82;1.80;;;6.90;99.90;;;;;;4996066;28;20034;-60
2022/02/24 00:50:43;;;;;;;5.13;1.85;;;6.90;99.90;;;;;;5005385;28;20060;-60
2022/02/24 00:53:08;;;;;;;6.32;2.17;;;7.00;99.90;;;;;;5003872;28;20404;-60
2022/02/24 00:55:34;;;;;;;8.15;2.08;;;7.00;99.90;;;;;;5011036;28;20041;-61
2022/02/24 00:57:59;;;;;;;12.82;2.67;;;7.00;99.90;;;;;;5003819;28;20040;-60
2022/02/24 01:00:25;;;;;;;16.20;2.88;;;7.10;99.90;;;;;;5005356;28;20092;-60
2022/02/24 01:02:50;;;;;;;9.80;2.67;;;7.10;99.90;;;;;;5006402;28;20522;-61
2022/02/24 01:05:16;;;;;;;7.45;2.30;;;7.10;99.90;;;;;;5004391;28;20061;-60
2022/02/24 01:07:42;;;;;;;12.50;3.53;;;7.10;99.90;;;;;;4987578;28;20101;-60
2022/02/24 01:10:09;;;;;;;10.50;2.28;;;7.10;99.90;;;;;;5011133;28;20476;-60
2022/02/24 01:12:35;;;;;;;7.70;2.15;;;7.10;99.90;;;;;;4992597;28;20037;-59
2022/02/24 01:15:06;;;;;;;11.68;2.20;;;7.10;99.90;;;;;;4997702;28;20038;-60
2022/02/24 01:17:33;;;;;;;7.18;2.53;;;7.20;99.90;;;;;;4992521;28;20048;-60
2022/02/24 01:19:59;;;;;;;12.10;2.85;;;7.20;99.90;;;;;;4998317;28;20061;-59
2022/02/24 01:22:25;;;;;;;9.07;2.45;;;7.20;99.90;;;;;;5009587;28;20065;-58
2022/02/24 01:24:50;;;;;;;10.32;2.20;;;7.30;99.90;;;;;;5010018;28;20042;-59
2022/02/24 01:27:16;;;;;;;12.45;3.35;;;7.30;99.90;;;;;;5008255;28;20033;-59
2022/02/24 01:29:42;;;;;;;10.05;2.35;;;7.30;99.90;;;;;;4995071;28;20030;-58
2022/02/24 01:32:07;;;;;;;4.75;2.13;;;7.30;99.90;;;;;;4995179;28;20026;-59
2022/02/24 01:34:33;;;;;;;10.27;2.50;;;7.30;99.90;;;;;;4988587;28;20037;-59
2022/02/24 01:36:58;;;;;;;8.27;2.63;;;7.30;99.90;;;;;;4995147;28;20035;-58
2022/02/24 01:39:24;;;;;;;4.57;2.00;;;7.30;99.90;;;;;;4998786;28;20084;-60
2022/02/24 01:41:52;;;;;;;8.77;2.28;;;7.30;99.90;;;;;;4992293;28;20084;-60
2022/02/24 01:44:18;;;;;;;7.18;2.05;;;7.30;99.90;;;;;;5001424;28;20034;-61
2022/02/24 01:46:43;;;;;;;9.40;1.95;;;7.30;99.90;;;;;;5003837;28;20104;-59
2022/02/24 01:49:10;;;;;;;9.32;2.17;;;7.30;99.90;;;;;;5005056;28;20479;-59
2022/02/24 01:51:37;;;;;;;8.30;2.03;;;7.30;99.90;;;;;;5005352;28;20037;-60
2022/02/24 01:54:04;;;;;;;8.48;2.30;;;7.30;99.90;;;;;;4997561;28;20065;-59
2022/02/24 01:56:30;;;;;;;8.10;2.20;;;7.30;99.90;;;;;;5002327;28;20058;-60
2022/02/24 01:58:56;;;;;;;9.32;2.20;;;7.30;99.90;;;;;;4999060;28;20090;-60
2022/02/24 02:01:22;;;;;;;10.80;2.40;;;7.20;99.90;;;;;;5004278;28;20888;-60
2022/02/24 02:03:49;;;;;;;11.15;2.75;;;7.20;99.90;;;;;;5009353;28;20052;-60
2022/02/24 02:06:15;;;;;;;9.35;2.08;;;7.20;99.90;;;;;;5007193;28;20037;-60
2022/02/24 02:08:42;;;;;;;18.33;2.72;;;7.20;99.90;;;;;;4975667;28;20512;-61
2022/02/24 02:11:07;;;;;;;9.80;2.03;;;7.20;99.90;;;;;;5001255;28;20038;-61
2022/02/24 02:13:34;;;;;;;17.48;2.70;;;7.20;99.90;;;;;;5004748;28;20040;-61
2022/02/24 02:15:59;;;;;;;8.48;2.42;;;7.20;99.90;;;;;;4992332;28;20129;-61
2022/02/24 02:18:25;;;;;;;10.05;2.67;;;7.20;99.90;;;;;;5003568;28;20164;-61
2022/02/24 02:20:54;;;;;;;6.53;2.10;;;7.20;99.90;;;;;;4991236;28;20062;-60
2022/02/24 02:23:19;;;;;;;6.55;2.08;;;7.20;99.90;;;;;;4996470;28;20040;-61
2022/02/24 02:25:46;;;;;;;7.85;1.88;;;7.20;99.90;;;;;;5007780;28;20021;-60
2022/02/24 02:28:16;;;;;;;9.55;4.00;;;7.20;99.90;;;;;;4994411;28;20026;-61
2022/02/24 02:30:42;;;;;;;11.13;2.60;;;7.20;99.90;;;;;;4995004;28;20034;-60
2022/02/24 02:33:08;;;;;;;11.35;2.00;;;7.10;99.90;;;;;;4989876;28;20034;-61
2022/02/24 02:35:34;;;;;;;6.00;1.98;;;7.10;99.90;;;;;;5005371;28;20052;-60
2022/02/24 02:37:59;;;;;;;11.20;2.50;;;7.10;99.90;;;;;;5000070;28;20131;-60
2022/02/24 02:40:26;;;;;;;8.98;2.30;;;7.20;99.90;;;;;;4990569;28;20117;-60
2022/02/24 02:42:52;;;;;;;11.55;4.68;;;7.20;99.90;;;;;;4999762;28;20877;-61
2022/02/24 02:45:18;;;;;;;5.32;2.20;;;7.10;99.90;;;;;;5003984;28;20547;-60
2022/02/24 02:47:44;;;;;;;16.70;5.53;;;7.10;99.90;;;;;;5002674;28;20486;-60
2022/02/24 02:50:10;;;;;;;14.10;5.22;;;7.10;99.90;;;;;;4995905;28;20034;-60
2022/02/24 02:52:36;;;;;;;10.35;3.47;;;7.10;99.90;;;;;;5002996;28;20045;-60
2022/02/24 02:55:07;;;;;;;9.88;2.10;;;7.10;99.90;;;;;;5002949;28;20109;-59
2022/02/24 02:57:34;;;;;;;10.88;3.72;;;7.10;99.90;;;;;;4999836;28;20035;-60
2022/02/24 03:00:00;;;;;;;9.60;2.63;;;7.10;99.90;;;;;;4999664;28;20092;-60
2022/02/24 03:02:26;;;;;;;16.73;4.05;;;7.20;99.90;;;;;;4999802;28;20404;-60
2022/02/24 03:04:51;;;;;;;16.77;3.67;;;7.20;99.90;;;;;;4991264;28;20034;-61
2022/02/24 03:07:18;;;;;;;15.88;4.93;;;7.20;99.90;;;;;;4998684;28;20130;-61
2022/02/24 03:09:45;;;;;;;8.02;2.30;;;7.10;99.90;;;;;;4979778;28;20070;-59
2022/02/24 03:12:11;;;;;;;7.55;2.22;;;7.10;99.90;;;;;;5014356;28;20534;-59
2022/02/24 03:14:38;;;;;;;9.35;1.90;;;7.20;99.90;;;;;;5002973;28;20025;-61
2022/02/24 03:17:07;;;;;;;7.30;1.98;;;7.20;99.90;;;;;;5006494;28;20030;-60
2022/02/24 03:19:33;;;;;;;7.22;2.10;;;7.20;99.90;;;;;;4998791;28;20069;-60
2022/02/24 03:21:59;;;;;;;11.85;3.03;;;7.20;99.90;;;;;;5003181;28;20058;-59
2022/02/24 03:24:25;;;;;;;11.65;2.70;;;7.20;99.90;;;;;;5000808;28;20056;-60
2022/02/24 03:26:50;;;;;;;11.40;4.13;;;7.20;99.90;;;;;;5000728;28;20026;-60
2022/02/24 03:29:16;;;;;;;12.75;3.03;;;7.20;99.90;;;;;;4997588;28;20089;-58
2022/02/24 03:31:42;;;;;;;17.95;6.40;;;7.20;99.90;;;;;;5001707;28;20022;-57
2022/02/24 03:34:09;;;;;;;9.57;3.00;;;7.20;99.90;;;;;;4995451;28;20044;-59
2022/02/24 03:36:34;;;;;;;14.48;4.38;;;7.20;99.90;;;;;;5003386;28;20034;-60
2022/02/24 03:39:00;;;;;;;6.95;2.17;;;7.20;99.90;;;;;;4998453;28;20026;-58
2022/02/24 03:41:26;;;;;;;6.32;1.70;;;7.30;99.90;;;;;;5008829;28;20105;-59
2022/02/24 03:43:53;;;;;;;6.53;1.80;;;7.30;99.90;;;;;;5000688;28;20372;-60
2022/02/24 03:46:20;;;;;;;9.15;2.05;;;7.30;99.90;;;;;;4989403;28;20530;-59
2022/02/24 03:48:47;;;;;;;9.20;2.10;;;7.30;99.90;;;;;;4999907;28;20022;-60
2022/02/24 03:51:12;;;;;;;7.28;1.60;;;7.30;99.90;;;;;;5003342;28;20817;-60
2022/02/24 03:53:38;;;;;;;10.57;2.10;;;7.30;99.90;;;;;;5001199;28;20048;-60
2022/02/24 03:56:04;;;;;;;6.30;2.00;;;7.30;99.90;;;;;;4995912;28;20430;-60
2022/02/24 03:58:29;;;;;;;11.63;2.17;;;7.30;99.90;;;;;;5004469;28;20045;-60
2022/02/24 04:00:55;;;;;;;9.10;3.55;;;7.30;99.90;;;;;;5000720;28;20377;-60
2022/02/24 04:03:20;;;;;;;6.13;2.22;;;7.30;99.90;;;;;;5002248;28;20690;-59
2022/02/24 04:05:46;;;;;;;5.75;1.95;;;7.30;99.90;;;;;;4993498;28;20484;-59
2022/02/24 04:08:11;;;;;;;10.73;1.83;;;7.40;99.90;;;;;;4976305;28;20042;-58
2022/02/24 04:10:37;;;;;;;7.15;2.97;;;7.40;99.90;;;;;;4995680;28;20025;-59
2022/02/24 04:13:02;;;;;;;9.75;2.22;;;7.40;99.90;;;;;;4997755;28;20087;-61
2022/02/24 04:15:28;;;;;;;5.97;1.70;;;7.40;99.90;;;;;;4993342;28;20109;-59
2022/02/24 04:17:54;;;;;;;8.38;2.20;;;7.30;99.90;;;;;;4994404;28;20030;-59
2022/02/24 04:20:20;;;;;;;6.10;1.80;;;7.30;99.90;;;;;;4998412;28;20504;-60
2022/02/24 04:22:45;;;;;;;11.77;2.08;;;7.40;99.90;;;;;;4999600;28;20026;-60
2022/02/24 04:25:11;;;;;;;12.75;3.45;;;7.40;99.90;;;;;;5005586;28;20048;-60
2022/02/24 04:27:37;;;;;;;10.52;2.10;;;7.40;99.90;;;;;;5003229;28;20566;-59
2022/02/24 04:30:03;;;;;;;12.75;2.33;;;7.40;99.90;;;;;;5005398;28;20109;-59
2022/02/24 04:32:28;;;;;;;9.00;1.80;;;7.40;99.90;;;;;;5006127;28;20040;-57
2022/02/24 04:34:54;;;;;;;5.75;1.85;;;7.40;99.90;;;;;;5003982;28;20880;-59
2022/02/24 04:37:19;;;;;;;5.95;1.95;;;7.40;99.90;;;;;;4996194;28;20034;-59
2022/02/24 04:39:45;;;;;;;13.05;3.10;;;7.40;99.90;;;;;;4992723;28;20044;-60
2022/02/24 04:42:10;;;;;;;8.65;2.13;;;7.40;99.90;;;;;;5003906;28;20037;-57
2022/02/24 04:44:36;;;;;;;9.20;2.00;;;7.50;99.90;;;;;;4997190;28;20026;-56
2022/02/24 04:47:01;;;;;;;6.82;1.85;;;7.50;99.90;;;;;;5006578;28;20105;-59
2022/02/24 04:49:27;;;;;;;10.88;2.25;;;7.50;99.90;;;;;;4996090;28;20027;-59
2022/02/24 04:51:52;;;;;;;10.57;2.05;;;7.50;99.90;;;;;;5002474;28;20026;-59
2022/02/24 04:54:18;;;;;;;5.80;1.83;;;7.50;99.90;;;;;;5003107;28;20049;-59
2022/02/24 04:56:43;;;;;;;7.35;1.98;;;7.60;99.90;;;;;;5001770;28;20038;-59
2022/02/24 04:59:09;;;;;;;5.60;1.63;;;7.60;99.90;;;;;;4994124;28;20026;-59
2022/02/24 05:01:35;;;;;;;4.53;1.60;;;7.70;99.90;;;;;;5004046;28;20030;-59
2022/02/24 05:04:01;;;;;;;7.47;1.67;;;7.70;99.90;;;;;;4997180;28;20025;-59
2022/02/24 05:06:26;;;;;;;7.85;2.05;;;7.70;99.90;;;;;;5010634;28;20484;-60
2022/02/24 05:08:52;;;;;;;8.77;1.95;;;7.70;99.90;;;;;;4984233;28;20038;-60
2022/02/24 05:11:17;;;;;;;7.65;2.30;;;7.70;99.90;;;;;;5001328;28;20033;-58
2022/02/24 05:13:43;;;;;;;5.32;1.80;;;7.70;99.90;;;;;;5000966;28;20038;-60
2022/02/24 05:16:08;;;;;;;7.30;1.40;;;7.70;99.90;;;;;;5007439;28;20025;-60
2022/02/24 05:18:34;;;;;;;7.38;2.03;;;7.70;99.90;;;;;;4999890;28;20435;-59
2022/02/24 05:20:59;;;;;;;8.80;2.88;;;7.70;99.90;;;;;;5004747;28;20030;-60
2022/02/24 05:23:26;;;;;;;12.40;2.20;;;7.70;99.90;;;;;;4999346;28;20022;-60
2022/02/24 05:25:51;;;;;;;7.15;1.88;;;7.70;99.90;;;;;;5000988;28;20479;-59
2022/02/24 05:28:17;;;;;;;7.63;2.13;;;7.60;99.90;;;;;;4999149;28;20030;-60
2022/02/24 05:30:42;;;;;;;5.18;1.70;;;7.70;99.90;;;;;;5002492;28;20022;-59
2022/02/24 05:33:11;;;;;;;3.10;1.15;;;7.70;99.90;;;;;;5004884;28;20035;-60
2022/02/24 05:35:37;;;;;;;6.22;1.55;;;7.70;99.90;;;;;;5004939;28;20399;-56
2022/02/24 05:38:02;;;;;;;6.43;1.80;;;7.70;99.90;;;;;;5000192;28;20503;-59
2022/02/24 05:40:28;;;;;;;17.08;5.20;;;7.60;99.90;;;;;;5003052;28;20022;-59
2022/02/24 05:42:54;;;;;;;7.13;1.42;;;7.60;99.90;;;;;;5006581;28;20592;-60
2022/02/24 05:45:19;;;;;;;6.75;1.75;;;7.60;99.90;;;;;;4997253;28;20027;-58
2022/02/24 05:47:45;;;;;;;6.63;1.77;;;7.60;99.90;;;;;;5004138;28;20109;-58
2022/02/24 05:50:11;;;;;;;238.13;72.25;;;7.60;99.90;;;;;;5004116;28;20036;-59
2022/02/24 05:52:36;;;;;;;57.30;26.60;;;7.60;99.90;;;;;;5000352;28;20120;-57
2022/02/24 05:55:04;;;;;;;73.90;29.67;;;7.60;99.90;;;;;;4995979;28;20093;-60
2022/02/24 05:57:29;;;;;;;337.92;110.78;;;7.60;99.90;;;;;;4992319;28;20027;-60
2022/02/24 05:59:55;;;;;;;34.75;12.07;;;7.60;99.90;;;;;;5002190;28;20148;-58
2022/02/24 06:02:21;;;;;;;9.02;2.38;;;7.60;99.90;;;;;;4997184;28;20022;-58
2022/02/24 06:04:46;;;;;;;10.70;2.60;;;7.60;99.90;;;;;;4995758;28;20022;-58
2022/02/24 06:07:12;;;;;;;8.60;2.60;;;7.60;99.90;;;;;;4993412;28;20014;-59
2022/02/24 06:09:37;;;;;;;8.27;2.47;;;7.50;99.90;;;;;;4998409;28;20037;-60
2022/02/24 06:12:03;;;;;;;6.00;1.80;;;7.60;99.90;;;;;;4994601;28;20035;-58
2022/02/24 06:14:29;;;;;;;8.30;2.33;;;7.50;99.90;;;;;;4992415;28;20385;-56
2022/02/24 06:16:54;;;;;;;5.00;1.70;;;7.50;99.90;;;;;;5002304;28;20495;-60
2022/02/24 06:19:20;;;;;;;7.63;1.65;;;7.50;99.90;;;;;;4995926;28;20512;-60
2022/02/24 06:21:48;;;;;;;5.68;2.30;;;7.50;99.90;;;;;;5002923;28;20063;-60
2022/02/24 06:24:13;;;;;;;6.60;1.83;;;7.50;99.90;;;;;;5006719;28;20675;-59
2022/02/24 06:26:39;;;;;;;12.43;3.85;;;7.50;99.90;;;;;;4998458;28;20033;-60
2022/02/24 06:29:04;;;;;;;49.75;16.65;;;7.50;99.90;;;;;;5000379;28;20109;-59
2022/02/24 06:31:34;;;;;;;41.72;12.02;;;7.50;99.90;;;;;;5006925;28;20095;-60
2022/02/24 06:34:01;;;;;;;114.25;31.15;;;7.50;99.90;;;;;;4999435;28;20526;-60
2022/02/24 06:36:26;;;;;;;57.20;17.45;;;7.50;99.90;;;;;;5000692;28;20035;-59
2022/02/24 06:38:52;;;;;;;80.25;24.20;;;7.50;99.90;;;;;;5004188;28;20030;-60
2022/02/24 06:41:20;;;;;;;66.47;21.13;;;7.40;99.90;;;;;;5004608;28;20031;-60
2022/02/24 06:43:45;;;;;;;57.17;16.02;;;7.50;99.90;;;;;;5004847;28;20022;-60
2022/02/24 06:46:11;;;;;;;47.60;17.23;;;7.40;99.90;;;;;;5006038;28;20031;-59
2022/02/24 06:48:37;;;;;;;29.08;9.88;;;7.40;99.90;;;;;;4999487;28;20780;-60
2022/02/24 06:51:02;;;;;;;21.17;7.93;;;7.50;99.90;;;;;;4995860;28;20034;-63
2022/02/24 06:53:27;;;;;;;36.90;9.73;;;7.50;99.90;;;;;;4998431;28;20030;-59
2022/02/24 06:55:53;;;;;;;30.08;9.40;;;7.50;99.90;;;;;;4994581;28;20405;-60
2022/02/24 06:58:18;;;;;;;11.85;4.30;;;7.50;99.90;;;;;;4992015;28;20030;-59
2022/02/24 07:00:44;;;;;;;37.67;14.10;;;7.50;99.90;;;;;;4995147;28;20049;-60
2022/02/24 07:03:10;;;;;;;23.13;8.55;;;7.60;99.90;;;;;;4993984;28;20030;-60
2022/02/24 07:05:35;;;;;;;29.35;11.07;;;7.60;99.90;;;;;;4992587;28;20034;-60
2022/02/24 07:08:02;;;;;;;27.48;11.68;;;7.60;99.90;;;;;;4991342;28;20089;-61
2022/02/24 07:10:28;;;;;;;28.33;11.50;;;7.60;99.90;;;;;;4992968;28;20121;-59
2022/02/24 07:12:53;;;;;;;42.35;16.42;;;7.60;99.90;;;;;;4997922;28;20465;-60
2022/02/24 07:15:19;;;;;;;37.90;13.43;;;7.70;99.90;;;;;;4999025;28;20496;-60
2022/02/24 07:17:47;;;;;;;33.15;13.57;;;7.60;99.90;;;;;;5003889;28;20103;-60
2022/02/24 07:20:15;;;;;;;27.08;11.73;;;7.70;99.90;;;;;;5000696;28;20036;-60
2022/02/24 07:22:41;;;;;;;19.92;7.05;;;7.80;99.90;;;;;;5001661;28;20097;-59
2022/02/24 07:25:08;;;;;;;17.02;6.63;;;7.80;99.90;;;;;;5005083;28;20029;-60
2022/02/24 07:27:35;;;;;;;22.17;7.45;;;7.90;99.90;;;;;;4997949;28;20105;-59
2022/02/24 07:30:02;;;;;;;15.43;6.72;;;7.90;99.90;;;;;;4999476;28;20109;-60
2022/02/24 07:32:28;;;;;;;20.25;8.45;;;8.00;99.90;;;;;;4998243;28;20030;-61
2022/02/24 07:34:54;;;;;;;19.80;6.72;;;8.10;99.90;;;;;;5004274;28;20779;-60
2022/02/24 07:37:20;;;;;;;64.22;18.38;;;8.10;99.90;;;;;;5001433;28;20034;-58
2022/02/24 07:39:45;;;;;;;43.47;13.35;;;8.20;99.90;;;;;;5004753;28;20048;-60
2022/02/24 07:42:11;;;;;;;74.47;22.60;;;8.20;99.90;;;;;;4998974;28;20037;-58
2022/02/24 07:44:37;;;;;;;43.17;13.50;;;8.30;99.90;;;;;;5003532;28;20057;-58
2022/02/24 07:47:03;;;;;;;18.45;5.93;;;8.30;99.90;;;;;;5002853;28;20112;-60
2022/02/24 07:49:28;;;;;;;19.60;6.75;;;8.40;99.90;;;;;;5005589;28;20431;-60
2022/02/24 07:51:54;;;;;;;14.90;3.97;;;8.40;99.90;;;;;;5001560;28;20038;-60
2022/02/24 07:54:23;;;;;;;11.85;3.92;;;8.50;99.90;;;;;;4995536;28;20026;-60
2022/02/24 07:56:52;;;;;;;41.58;22.42;;;8.50;99.90;;;;;;4993151;28;20073;-59
2022/02/24 07:59:18;;;;;;;10.52;4.97;;;8.50;99.90;;;;;;4996669;28;20035;-60
2022/02/24 08:01:44;;;;;;;11.15;3.75;;;8.60;99.90;;;;;;4991287;28;20034;-59
2022/02/24 08:04:09;;;;;;;28.20;10.68;;;8.60;99.90;;;;;;5002178;28;20499;-60
2022/02/24 08:06:36;;;;;;;47.38;19.02;;;8.60;99.90;;;;;;4994395;28;20041;-60
2022/02/24 08:09:03;;;;;;;69.60;35.20;;;8.60;99.90;;;;;;4999006;28;20034;-60
2022/02/24 08:11:28;;;;;;;16.50;7.28;;;8.70;99.90;;;;;;4995882;28;20030;-60
2022/02/24 08:13:54;;;;;;;8.32;3.75;;;8.80;99.90;;;;;;5000312;28;20620;-61
2022/02/24 08:16:19;;;;;;;6.53;2.50;;;8.90;99.90;;;;;;5007561;28;20045;-60
2022/02/24 08:18:45;;;;;;;13.23;5.30;;;9.00;99.90;;;;;;5014365;28;20459;-60
2022/02/24 08:21:10;;;;;;;16.55;8.02;;;9.20;99.90;;;;;;4993435;28;20077;-60
2022/02/24 08:23:36;;;;;;;23.92;10.45;;;9.30;99.90;;;;;;4998947;28;20450;-59
2022/02/24 08:26:02;;;;;;;20.83;7.68;;;9.40;99.90;;;;;;5001457;28;20026;-59
2022/02/24 08:28:27;;;;;;;19.58;9.00;;;9.40;99.90;;;;;;5006342;28;20472;-60
2022/02/24 08:30:53;;;;;;;16.05;8.23;;;9.30;99.90;;;;;;4999442;28;20042;-60
2022/02/24 08:33:19;;;;;;;12.60;5.60;;;9.40;99.90;;;;;;5004639;28;20029;-59
2022/02/24 08:35:44;;;;;;;20.58;10.88;;;9.40;99.90;;;;;;4997123;28;20943;-59
2022/02/24 08:38:10;;;;;;;8.82;3.15;;;9.40;99.90;;;;;;5003923;28;20042;-59
2022/02/24 08:40:36;;;;;;;14.48;8.15;;;9.30;99.90;;;;;;5003364;28;20099;-60
2022/02/24 08:43:01;;;;;;;10.50;4.88;;;9.30;99.90;;;;;;4988852;28;20042;-59
2022/02/24 08:45:28;;;;;;;5.82;2.92;;;9.30;99.90;;;;;;5000788;28;20057;-60
2022/02/24 08:47:54;;;;;;;10.38;4.10;;;9.30;99.90;;;;;;5000290;28;20587;-61
2022/02/24 08:50:20;;;;;;;8.02;3.47;;;9.30;99.90;;;;;;5001674;28;20123;-61
2022/02/24 08:52:46;;;;;;;10.35;3.30;;;9.30;99.90;;;;;;5003698;28;20061;-61
2022/02/24 08:55:12;;;;;;;13.73;4.78;;;9.30;99.90;;;;;;5005073;28;20492;-61
2022/02/24 08:57:38;;;;;;;10.95;3.85;;;9.30;99.90;;;;;;5002877;28;20037;-60
2022/02/24 09:00:06;;;;;;;10.75;3.50;;;9.20;99.90;;;;;;4995452;28;20033;-62
2022/02/24 09:02:32;;;;;;;5.53;2.97;;;9.20;99.90;;;;;;4992864;28;20103;-58
2022/02/24 09:04:57;;;;;;;6.18;3.10;;;9.10;99.90;;;;;;4996159;28;20025;-61
2022/02/24 09:07:23;;;;;;;9.20;3.50;;;9.10;99.90;;;;;;4992435;28;20045;-61
2022/02/24 09:09:48;;;;;;;12.85;3.40;;;9.00;99.90;;;;;;5008054;28;20041;-61
2022/02/24 09:12:14;;;;;;;9.43;2.95;;;9.00;99.90;;;;;;5003425;28;20033;-61
2022/02/24 09:14:39;;;;;;;8.65;2.65;;;8.90;99.90;;;;;;4998941;28;20034;-61
2022/02/24 09:17:05;;;;;;;13.48;4.32;;;8.90;99.90;;;;;;5000403;28;20038;-61
2022/02/24 09:19:31;;;;;;;11.23;4.60;;;8.90;99.90;;;;;;5001903;28;20510;-61
2022/02/24 09:21:56;;;;;;;12.82;4.97;;;8.90;99.90;;;;;;5001201;28;20025;-61
2022/02/24 09:24:22;;;;;;;8.45;2.47;;;8.80;99.90;;;;;;5005577;28;20018;-61
2022/02/24 09:26:48;;;;;;;12.77;4.68;;;8.80;99.90;;;;;;4997137;28;20113;-61
2022/02/24 09:29:17;;;;;;;10.43;3.97;;;8.80;99.90;;;;;;5002693;28;20469;-61
2022/02/24 09:31:42;;;;;;;12.80;3.72;;;8.80;99.90;;;;;;4996184;28;20468;-61
2022/02/24 09:34:08;;;;;;;12.60;4.50;;;8.80;99.90;;;;;;4994642;28;20030;-60
2022/02/24 09:36:34;;;;;;;10.05;3.05;;;8.90;99.90;;;;;;4991988;28;20034;-61
2022/02/24 09:39:00;;;;;;;8.00;2.60;;;9.00;99.90;;;;;;4995063;28;20026;-60
2022/02/24 09:41:26;;;;;;;10.10;2.90;;;9.10;99.90;;;;;;4995149;28;20034;-61
2022/02/24 09:43:53;;;;;;;12.02;2.65;;;9.10;99.90;;;;;;5006280;28;20037;-61
2022/02/24 09:46:19;;;;;;;5.35;2.42;;;9.10;99.90;;;;;;5006240;28;20714;-60
2022/02/24 09:48:46;;;;;;;9.57;2.35;;;9.10;99.90;;;;;;5005692;28;20026;-60
2022/02/24 09:51:14;;;;;;;7.85;3.13;;;9.20;99.90;;;;;;4998614;28;20550;-60
2022/02/24 09:53:42;;;;;;;26.00;9.35;;;9.30;99.90;;;;;;4998185;28;20065;-59
2022/02/24 09:56:15;;;;;;;37.58;13.55;;;9.20;99.90;;;;;;5005505;28;20030;-59
2022/02/24 09:58:40;;;;;;;22.38;9.40;;;9.10;99.90;;;;;;5009029;28;20038;-61
2022/02/24 10:01:07;;;;;;;30.58;11.38;;;9.20;99.90;;;;;;4995612;28;20511;-61
2022/02/24 10:03:33;;;;;;;28.95;11.32;;;9.30;99.90;;;;;;4999720;28;20029;-60
2022/02/24 10:06:03;;;;;;;14.80;4.45;;;9.30;99.90;;;;;;5001079;28;20022;-61
2022/02/24 10:08:38;;;;;;;15.10;4.93;;;9.30;99.90;;;;;;5002156;28;20105;-61
2022/02/24 10:11:17;;;;;;;11.07;4.38;;;9.40;99.90;;;;;;5001962;28;20165;-60
2022/02/24 10:13:59;;;;;;;12.50;3.92;;;9.50;99.90;;;;;;5009001;28;20410;-60
2022/02/24 10:16:26;;;;;;;8.35;2.63;;;9.50;99.90;;;;;;4996906;28;20034;-60
2022/02/24 10:18:52;;;;;;;9.63;3.17;;;9.60;99.90;;;;;;5005887;28;20159;-60
2022/02/24 10:21:20;;;;;;;8.40;3.65;;;9.60;99.90;;;;;;5008082;28;20116;-59
2022/02/24 10:23:48;;;;;;;28.33;10.52;;;9.50;99.90;;;;;;4997476;28;20022;-60
2022/02/24 10:26:15;;;;;;;10.32;3.97;;;9.50;99.90;;;;;;4995334;28;20023;-60
2022/02/24 10:28:51;;;;;;;25.95;8.45;;;9.50;99.90;;;;;;4998873;28;20026;-60
2022/02/24 10:31:22;;;;;;;16.88;7.32;;;9.50;99.90;;;;;;4991976;28;20031;-60
2022/02/24 10:33:53;;;;;;;9.73;2.92;;;9.50;99.90;;;;;;4996708;28;20611;-59
2022/02/24 10:36:18;;;;;;;8.63;4.47;;;9.50;99.90;;;;;;5001755;28;20048;-60
2022/02/24 10:39:04;;;;;;;12.25;4.80;;;9.50;99.90;;;;;;5010107;28;20112;-59
2022/02/24 10:41:33;;;;;;;21.75;8.32;;;9.50;99.90;;;;;;5012575;28;20029;-60
2022/02/24 10:44:12;;;;;;;22.92;10.07;;;9.40;99.90;;;;;;5001706;28;20034;-59
2022/02/24 10:46:37;;;;;;;29.83;11.18;;;9.40;99.90;;;;;;5006208;28;20421;-53
2022/02/24 10:49:03;;;;;;;42.85;14.18;;;9.40;99.90;;;;;;5004440;28;20026;-58
2022/02/24 10:51:34;;;;;;;52.33;18.95;;;9.40;99.90;;;;;;4992821;28;20511;-60
2022/02/24 10:54:07;;;;;;;30.35;9.77;;;9.40;99.90;;;;;;4998320;28;20026;-59
2022/02/24 10:56:36;;;;;;;12.55;6.00;;;9.60;99.90;;;;;;5001731;28;20030;-58
2022/02/24 10:59:02;;;;;;;10.25;5.95;;;9.70;99.90;;;;;;5005813;28;20026;-60
2022/02/24 11:01:29;;;;;;;6.53;3.65;;;9.80;99.90;;;;;;5006235;28;20044;-60
2022/02/24 11:03:57;;;;;;;9.75;2.30;;;9.90;99.90;;;;;;5006889;28;20033;-60
2022/02/24 11:06:24;;;;;;;8.80;2.13;;;10.00;99.90;;;;;;5008375;28;20034;-60
2022/02/24 11:08:53;;;;;;;5.60;2.90;;;10.20;99.90;;;;;;5002878;28;20037;-57
2022/02/24 11:11:30;;;;;;;6.70;3.40;;;10.10;99.90;;;;;;5007386;28;20100;-60
2022/02/24 11:14:00;;;;;;;10.23;5.10;;;10.10;99.90;;;;;;4999974;28;20033;-60
2022/02/24 11:16:26;;;;;;;7.18;3.28;;;10.20;99.90;;;;;;4997750;28;20038;-60
2022/02/24 11:18:54;;;;;;;10.07;4.22;;;10.30;99.90;;;;;;5003854;28;20022;-59
2022/02/24 11:21:21;;;;;;;25.60;8.95;;;10.30;99.90;;;;;;5007817;28;20037;-60
2022/02/24 11:23:47;;;;;;;31.58;13.32;;;10.30;99.90;;;;;;5006533;28;20014;-60
2022/02/24 11:26:22;;;;;;;23.15;10.15;;;10.20;99.90;;;;;;4998325;28;20026;-59
2022/02/24 11:29:13;;;;;;;18.83;8.35;;;10.00;99.90;;;;;;4998455;28;20101;-60
2022/02/24 11:32:10;;;;;;;12.57;6.43;;;10.00;99.90;;;;;;4998152;28;20050;-59
2022/02/24 11:35:00;;;;;;;7.15;3.88;;;10.00;99.90;;;;;;5003626;28;20041;-60
2022/02/24 11:37:27;;;;;;;13.35;6.20;;;9.90;99.90;;;;;;5009995;28;20083;-60
2022/02/24 11:40:06;;;;;;;14.98;7.28;;;9.90;99.90;;;;;;4999257;28;20038;-58
2022/02/24 11:42:36;;;;;;;14.48;7.20;;;9.80;99.90;;;;;;4998677;28;20022;-59
2022/02/24 11:45:23;;;;;;;18.13;9.05;;;9.70;99.90;;;;;;4995472;28;20098;-60
2022/02/24 11:47:56;;;;;;;7.95;4.68;;;9.70;99.90;;;;;;4999714;28;20365;-60
2022/02/24 11:50:54;;;;;;;11.82;7.35;;;9.70;99.90;;;;;;4995570;28;20026;-60
2022/02/24 11:53:26;;;;;;;9.45;4.38;;;9.80;99.90;;;;;;5014383;28;20041;-60
2022/02/24 11:56:13;;;;;;;7.90;4.20;;;9.90;99.90;;;;;;5012296;28;20030;-59
2022/02/24 11:58:42;;;;;;;68.63;26.17;;;9.90;99.90;;;;;;5004767;28;20049;-59
2022/02/24 12:01:14;;;;;;;22.90;8.95;;;10.00;99.90;;;;;;4990552;28;20586;-60
2022/02/24 12:03:47;;;;;;;50.08;24.65;;;10.10;99.90;;;;;;5000515;28;20034;-60
2022/02/24 12:06:18;;;;;;;26.30;12.63;;;10.30;99.90;;;;;;4999539;28;20635;-59
2022/02/24 12:09:02;;;;;;;14.40;5.68;;;10.30;99.90;;;;;;4998163;28;20038;-59
2022/02/24 12:11:30;;;;;;;15.35;7.70;;;10.40;99.90;;;;;;4991253;28;20065;-60
2022/02/24 12:13:56;;;;;;;36.67;16.17;;;10.50;99.90;;;;;;4999708;28;20034;-60
2022/02/24 12:16:24;;;;;;;9.98;5.13;;;10.50;99.90;;;;;;4998551;28;20026;-59
2022/02/24 12:18:51;;;;;;;6.53;3.00;;;10.50;99.90;;;;;;5003938;28;20083;-60
2022/02/24 12:21:36;;;;;;;9.52;4.13;;;10.50;99.90;;;;;;4999008;28;20070;-60
2022/02/24 12:24:10;;;;;;;4.97;1.75;;;10.40;99.90;;;;;;5004466;28;20026;-60
2022/02/24 12:26:37;;;;;;;4.32;2.15;;;10.30;99.90;;;;;;5005070;28;20038;-60
2022/02/24 12:29:28;;;;;;;4.40;1.67;;;10.30;99.90;;;;;;5001482;28;20088;-59
2022/02/24 12:31:59;;;;;;;6.80;2.00;;;10.20;99.90;;;;;;4994808;28;20030;-60
2022/02/24 12:34:26;;;;;;;8.50;3.35;;;10.20;99.90;;;;;;5004819;28;20050;-60
2022/02/24 12:37:02;;;;;;;5.22;3.03;;;10.20;99.90;;;;;;5001836;28;20062;-59
2022/02/24 12:39:35;;;;;;;3.70;1.70;;;10.30;99.90;;;;;;4997511;28;20034;-60
2022/02/24 12:42:02;;;;;;;5.95;3.20;;;10.40;99.90;;;;;;5012589;28;20159;-60
2022/02/24 12:44:27;;;;;;;4.72;2.53;;;10.70;99.90;;;;;;5011823;28;20090;-60
2022/02/24 12:46:53;;;;;;;7.57;2.40;;;11.00;99.90;;;;;;5005873;28;20570;-60
2022/02/24 12:49:19;;;;;;;6.75;3.78;;;11.20;99.90;;;;;;5010016;28;20022;-60